(°F)
53°
53°
53°
53°
53°
52°
52°
(°F)
51°
51°
51°
50°
50°
49°
49°
S
S
SSW
SSW
SSW
SSW
SSW
(mph)
4-14
5-15
5-15
6-15
6-15
7-15
7-15
(in)
0
0
0
0
0
0
0
(%)
30
30
30
30
41
53
64

Sun elevation

/ -56°
sun-icon
UV 0
07:32
16:22
Waning crescent (307°)
02:42
14:30

METAR for Renton (KRNT)

Time Conditions Temperature/
Dewpoint
Wind Visibility Weather Clouds Pressure Change Raw
IFR 53.06°F / 51.08°F 160º 3kt 3200m Light Rain Mist 0.13mm precipitation Overcast 1400ft - KRNT 300916Z AUTO 16003KT 2SM -RA BR OVC014 12/11 A3018 RMK AO2 RAB04 P0000 T01170106
MVFR 53.96°F / 50°F variable 0kt >10km - Overcast 1400ft 1022 - KRNT 300853Z AUTO 00000KT 10SM OVC014 12/10 A3018 RMK AO2 SLP225 T01220100 58007
MVFR 55.04°F / 50°F variable 4kt >10km - Overcast 1300ft 1023 - KRNT 300753Z AUTO VRB04KT 10SM OVC013 13/10 A3020 RMK AO2 SLP231 T01280100 401500117
MVFR 53.96°F / 50°F 140º 3kt >10km - Broken Clouds 1100ft
Overcast 3400ft
- KRNT 300715Z AUTO 14003KT 10SM BKN011 OVC034 12/10 A3020 RMK AO2 T01220100
VFR 53.96°F / 50°F 130º 5kt >10km - Few Clouds 1500ft
Scattered Clouds 3300ft
Broken Clouds 5500ft
1023 - KRNT 300653Z AUTO 13005KT 10SM FEW015 SCT033 BKN055 12/10 A3021 RMK AO2 SLP233 T01220100
VFR 53.96°F / 50°F variable 0kt >10km - Broken Clouds 3900ft
Overcast 6000ft
1023 - KRNT 300553Z AUTO 00000KT 10SM BKN039 OVC060 12/10 A3020 RMK AO2 SLP232 T01220100 10144 20117 55007
VFR 53.96°F / 50°F variable 0kt >10km - Overcast 4100ft 1022 - KRNT 300453Z AUTO 00000KT 10SM OVC041 12/10 A3019 RMK AO2 SLP227 T01220100
VFR 53.96°F / 50°F variable 3kt >10km - Broken Clouds 4100ft
Overcast 5500ft
1023 - KRNT 300353Z AUTO VRB03KT 10SM BKN041 OVC055 12/10 A3021 RMK AO2 SLP233 T01220100
VFR 55.04°F / 50°F variable 0kt >10km - Scattered Clouds 4200ft
Overcast 5500ft
1023 - KRNT 300253Z AUTO 00000KT 10SM SCT042 OVC055 13/10 A3022 RMK AO2 SLP239 T01280100 56002
VFR 55.04°F / 48.92°F variable 0kt >10km - Overcast 6000ft 1024 - KRNT 300153Z AUTO 00000KT 10SM OVC060 13/09 A3023 RMK AO2 SLP242 T01280094
VFR 57.02°F / 48.92°F variable 0kt >10km - Broken Clouds 6000ft 1023 - KRNT 300053Z AUTO 00000KT 10SM BKN060 14/09 A3021 RMK AO2 SLP234 T01390094
VFR 57.92°F / 48.02°F 150º 4kt >10km - Few Clouds 6000ft 1024 - KRNT 292353Z 15004KT 10SM FEW060 14/09 A3023 RMK AO2 SLP241 T01440089 10150 20128 58003
VFR 59°F / 48.92°F 180º 6kt >10km - Few Clouds 2600ft 1024 - KRNT 292253Z 18006KT 10SM FEW026 15/09 A3024 RMK AO2 SLP244 T01500094
VFR 59°F / 48.92°F 180º 7kt >10km - Scattered Clouds 2400ft
Broken Clouds 6000ft
- KRNT 292216Z 18007KT 10SM SCT024 BKN060 15/09 A3024 RMK AO2 T01500094
MVFR 59°F / 48.92°F 180º 9kt Gust 15kt >10km - Broken Clouds 2300ft
Broken Clouds 6000ft
- KRNT 292208Z 18009G15KT 10SM BKN023 BKN060 15/09 A3024 RMK AO2 T01500094
VFR 59°F / 50°F 190º 8kt Gust 17kt >10km - Few Clouds 2300ft 1024 - KRNT 292153Z 19008G17KT 10SM FEW023 15/10 A3024 RMK AO2 SLP244 T01500100 $
VFR 57.02°F / 50°F 190º 7kt >10km - Scattered Clouds 2700ft
Broken Clouds 5500ft
1024 - KRNT 292053Z 19007KT 10SM SCT027 BKN055 14/10 A3024 RMK AO2 SLP245 T01390100 58001 $
VFR 57.92°F / 51.08°F 200º 6kt Gust 15kt >10km - Few Clouds 2300ft - KRNT 292024Z 20006G15KT 10SM FEW023 14/11 A3024 RMK AO2 T01440106 $
MVFR 57.02°F / 51.08°F 200º 8kt >10km - Scattered Clouds 1600ft
Overcast 2300ft
1024 - KRNT 291953Z 20008KT 10SM SCT016 OVC023 14/11 A3024 RMK AO2 SLP246 T01390106 $
MVFR 55.94°F / 51.08°F 190º 5kt >10km - Broken Clouds 1600ft
Overcast 2000ft
1024 - KRNT 291853Z 19005KT 10SM BKN016 OVC020 13/11 A3025 RMK AO2 SLP249 T01330106 $
MVFR 55.94°F / 51.08°F 180º 4kt >10km - Broken Clouds 1600ft
Overcast 2000ft
- KRNT 291820Z 18004KT 10SM BKN016 OVC020 13/11 A3025 RMK AO2 T01330106 $
MVFR 55.04°F / 50°F 180º 6kt >10km - Overcast 1300ft 1024 - KRNT 291753Z 18006KT 10SM OVC013 13/10 A3024 RMK AO2 SLP245 T01280100 10128 20117 53013 $
MVFR 55.04°F / 50°F 190º 4kt >10km - Overcast 1200ft 1024 - KRNT 291653Z 19004KT 10SM OVC012 13/10 A3023 RMK AO2 SLP242 T01280100 $
MVFR 53.96°F / 50°F variable 0kt >10km - Broken Clouds 1300ft
Overcast 2000ft
- KRNT 291600Z AUTO 00000KT 10SM BKN013 OVC020 12/10 A3022 RMK AO2 T01220100 $

IFR

53.06°F / 51.08°F

[More]
Wind 160º 3kt
Visibility 3200m
Weather Light Rain Mist 0.13mm precipitation
Clouds Overcast 1400ft
Pressure
Change -
Raw KRNT 300916Z AUTO 16003KT 2SM -RA BR OVC014 12/11 A3018 RMK AO2 RAB04 P0000 T01170106

MVFR

53.96°F / 50°F

[More]
Wind variable 0kt
Visibility >10km
Weather -
Clouds Overcast 1400ft
Pressure 1022
Change -
Raw KRNT 300853Z AUTO 00000KT 10SM OVC014 12/10 A3018 RMK AO2 SLP225 T01220100 58007

MVFR

55.04°F / 50°F

[More]
Wind variable 4kt
Visibility >10km
Weather -
Clouds Overcast 1300ft
Pressure 1023
Change -
Raw KRNT 300753Z AUTO VRB04KT 10SM OVC013 13/10 A3020 RMK AO2 SLP231 T01280100 401500117

MVFR

53.96°F / 50°F

[More]
Wind 140º 3kt
Visibility >10km
Weather -
Clouds Broken Clouds 1100ft
Overcast 3400ft
Pressure
Change -
Raw KRNT 300715Z AUTO 14003KT 10SM BKN011 OVC034 12/10 A3020 RMK AO2 T01220100

VFR

53.96°F / 50°F

[More]
Wind 130º 5kt
Visibility >10km
Weather -
Clouds Few Clouds 1500ft
Scattered Clouds 3300ft
Broken Clouds 5500ft
Pressure 1023
Change -
Raw KRNT 300653Z AUTO 13005KT 10SM FEW015 SCT033 BKN055 12/10 A3021 RMK AO2 SLP233 T01220100

VFR

53.96°F / 50°F

[More]
Wind variable 0kt
Visibility >10km
Weather -
Clouds Broken Clouds 3900ft
Overcast 6000ft
Pressure 1023
Change -
Raw KRNT 300553Z AUTO 00000KT 10SM BKN039 OVC060 12/10 A3020 RMK AO2 SLP232 T01220100 10144 20117 55007

VFR

53.96°F / 50°F

[More]
Wind variable 0kt
Visibility >10km
Weather -
Clouds Overcast 4100ft
Pressure 1022
Change -
Raw KRNT 300453Z AUTO 00000KT 10SM OVC041 12/10 A3019 RMK AO2 SLP227 T01220100

VFR

53.96°F / 50°F

[More]
Wind variable 3kt
Visibility >10km
Weather -
Clouds Broken Clouds 4100ft
Overcast 5500ft
Pressure 1023
Change -
Raw KRNT 300353Z AUTO VRB03KT 10SM BKN041 OVC055 12/10 A3021 RMK AO2 SLP233 T01220100

VFR

55.04°F / 50°F

[More]
Wind variable 0kt
Visibility >10km
Weather -
Clouds Scattered Clouds 4200ft
Overcast 5500ft
Pressure 1023
Change -
Raw KRNT 300253Z AUTO 00000KT 10SM SCT042 OVC055 13/10 A3022 RMK AO2 SLP239 T01280100 56002

VFR

55.04°F / 48.92°F

[More]
Wind variable 0kt
Visibility >10km
Weather -
Clouds Overcast 6000ft
Pressure 1024
Change -
Raw KRNT 300153Z AUTO 00000KT 10SM OVC060 13/09 A3023 RMK AO2 SLP242 T01280094

VFR

57.02°F / 48.92°F

[More]
Wind variable 0kt
Visibility >10km
Weather -
Clouds Broken Clouds 6000ft
Pressure 1023
Change -
Raw KRNT 300053Z AUTO 00000KT 10SM BKN060 14/09 A3021 RMK AO2 SLP234 T01390094

VFR

57.92°F / 48.02°F

[More]
Wind 150º 4kt
Visibility >10km
Weather -
Clouds Few Clouds 6000ft
Pressure 1024
Change -
Raw KRNT 292353Z 15004KT 10SM FEW060 14/09 A3023 RMK AO2 SLP241 T01440089 10150 20128 58003

VFR

59°F / 48.92°F

[More]
Wind 180º 6kt
Visibility >10km
Weather -
Clouds Few Clouds 2600ft
Pressure 1024
Change -
Raw KRNT 292253Z 18006KT 10SM FEW026 15/09 A3024 RMK AO2 SLP244 T01500094

VFR

59°F / 48.92°F

[More]
Wind 180º 7kt
Visibility >10km
Weather -
Clouds Scattered Clouds 2400ft
Broken Clouds 6000ft
Pressure
Change -
Raw KRNT 292216Z 18007KT 10SM SCT024 BKN060 15/09 A3024 RMK AO2 T01500094

MVFR

59°F / 48.92°F

[More]
Wind 180º 9kt Gust 15kt
Visibility >10km
Weather -
Clouds Broken Clouds 2300ft
Broken Clouds 6000ft
Pressure
Change -
Raw KRNT 292208Z 18009G15KT 10SM BKN023 BKN060 15/09 A3024 RMK AO2 T01500094

VFR

59°F / 50°F

[More]
Wind 190º 8kt Gust 17kt
Visibility >10km
Weather -
Clouds Few Clouds 2300ft
Pressure 1024
Change -
Raw KRNT 292153Z 19008G17KT 10SM FEW023 15/10 A3024 RMK AO2 SLP244 T01500100 $

VFR

57.02°F / 50°F

[More]
Wind 190º 7kt
Visibility >10km
Weather -
Clouds Scattered Clouds 2700ft
Broken Clouds 5500ft
Pressure 1024
Change -
Raw KRNT 292053Z 19007KT 10SM SCT027 BKN055 14/10 A3024 RMK AO2 SLP245 T01390100 58001 $

VFR

57.92°F / 51.08°F

[More]
Wind 200º 6kt Gust 15kt
Visibility >10km
Weather -
Clouds Few Clouds 2300ft
Pressure
Change -
Raw KRNT 292024Z 20006G15KT 10SM FEW023 14/11 A3024 RMK AO2 T01440106 $

MVFR

57.02°F / 51.08°F

[More]
Wind 200º 8kt
Visibility >10km
Weather -
Clouds Scattered Clouds 1600ft
Overcast 2300ft
Pressure 1024
Change -
Raw KRNT 291953Z 20008KT 10SM SCT016 OVC023 14/11 A3024 RMK AO2 SLP246 T01390106 $

MVFR

55.94°F / 51.08°F

[More]
Wind 190º 5kt
Visibility >10km
Weather -
Clouds Broken Clouds 1600ft
Overcast 2000ft
Pressure 1024
Change -
Raw KRNT 291853Z 19005KT 10SM BKN016 OVC020 13/11 A3025 RMK AO2 SLP249 T01330106 $

MVFR

55.94°F / 51.08°F

[More]
Wind 180º 4kt
Visibility >10km
Weather -
Clouds Broken Clouds 1600ft
Overcast 2000ft
Pressure
Change -
Raw KRNT 291820Z 18004KT 10SM BKN016 OVC020 13/11 A3025 RMK AO2 T01330106 $

MVFR

55.04°F / 50°F

[More]
Wind 180º 6kt
Visibility >10km
Weather -
Clouds Overcast 1300ft
Pressure 1024
Change -
Raw KRNT 291753Z 18006KT 10SM OVC013 13/10 A3024 RMK AO2 SLP245 T01280100 10128 20117 53013 $

MVFR

55.04°F / 50°F

[More]
Wind 190º 4kt
Visibility >10km
Weather -
Clouds Overcast 1200ft
Pressure 1024
Change -
Raw KRNT 291653Z 19004KT 10SM OVC012 13/10 A3023 RMK AO2 SLP242 T01280100 $

MVFR

53.96°F / 50°F

[More]
Wind variable 0kt
Visibility >10km
Weather -
Clouds Broken Clouds 1300ft
Overcast 2000ft
Pressure
Change -
Raw KRNT 291600Z AUTO 00000KT 10SM BKN013 OVC020 12/10 A3022 RMK AO2 T01220100 $

Current satellite images for Renton, United States of America

The location marker is placed on Renton. [More]

The real-time satellite image combines visible light during daytime with infrared radiation during nighttime. At night, the image is not dark as infrared radiation can detect temperature differences. Unfortunately, low clouds and fog are difficult to distinguish from ground temperatures and thus can be almost invisible during the night. Meteosat satellite images for Europe are updated in real-time every 5 minutes. GOES-16/GOES-17 (North & South America) and Himawari (Asia) images update every 10 minutes.

Radar and precipitation nowcast for Renton

Drizzle
Light
Moderate
Heavy
Very Heavy
Hail

The location marker is placed on Renton. This animation shows the precipitation radar for the last hour, as well as a 1h forecast. Drizzle or light snow fall might be invisible for the radar. Precipitation intensity is colour coded, ranging from light blue to orange.